Time;durP1;ratioP1;P1;durP2;ratioP2;P2;SDS_P1;SDS_P2;PMS_P1;PMS_P2;Temp;Humidity;BMP_temperature;BMP_pressure;BME280_temperature;BME280_humidity;BME280_pressure;Samples;Min_cycle;Max_cycle;Signal;HPM_P1;HPM_P2
2022/11/06 06:36:50;;;;;;;;;;;;;;;10.75;61.74;96958.97;4229007;27;10351;-65
2022/11/06 06:38:54;;;;;;;;;;;;;;;11.05;61.53;96958.81;4227950;27;5102;-65
2022/11/06 06:41:01;;;;;;;;;;;;;;;11.28;60.94;96962.03;4229098;27;5774;-64
2022/11/06 06:43:04;;;;;;;;;;;;;;;11.48;60.48;96956.06;4225953;27;5709;-65
2022/11/06 06:45:07;;;;;;;;;;;;;;;11.63;60.07;96956.75;4226150;27;5676;-65
2022/11/06 06:47:10;;;;;;;;;;;;;;;11.76;60.11;96956.81;4226019;27;5671;-65
2022/11/06 06:49:13;;;;;;;;;;;;;;;11.86;59.93;96956.50;4229638;27;5683;-66
2022/11/06 06:51:17;;;;;;;;;;;;;;;11.91;59.45;96957.56;4224584;28;5774;-65
2022/11/06 06:53:27;;;;;;;;;;;;;;;11.95;59.51;96953.50;4224900;27;5712;-66
2022/11/06 06:55:30;;;;;;;;;;;;;;;11.99;59.10;96961.84;4225995;28;5757;-66
2022/11/06 06:57:33;;;;;;;;;;;;;;;12.01;59.07;96973.09;4227424;27;5833;-66
2022/11/06 06:59:36;;;;;;;;;;;;;;;12.03;58.96;96973.72;4227939;27;5777;-66
2022/11/06 07:01:39;;;;;;;;;;;;;;;12.08;58.97;96978.41;4227695;27;5871;-65
2022/11/06 07:03:42;;;;;;;;;;;;;;;12.14;58.64;96978.44;4224918;27;7020;-66
2022/11/06 07:05:45;;;;;;;;;;;;;;;12.20;58.83;96977.63;4225049;27;5678;-65
2022/11/06 07:07:48;;;;;;;;;;;;;;;12.29;58.32;96982.75;4225648;27;6345;-65
2022/11/06 07:09:52;;;;;;;;;;;;;;;12.32;58.33;96977.06;4229285;28;5667;-65
2022/11/06 07:11:55;;;;;;;;;;;;;;;12.35;58.34;96979.34;4230821;28;5957;-65
2022/11/06 07:13:59;;;;;;;;;;;;;;;12.39;58.19;96985.84;4230911;28;5663;-65
2022/11/06 07:16:02;;;;;;;;;;;;;;;12.41;57.90;96984.63;4228038;28;5900;-65
2022/11/06 07:18:07;;;;;;;;;;;;;;;12.45;57.99;96979.75;4222402;28;5764;-65
2022/11/06 07:20:10;;;;;;;;;;;;;;;12.49;57.84;96970.38;4227175;27;5117;-66
2022/11/06 07:22:14;;;;;;;;;;;;;;;12.51;57.94;96963.03;4231590;27;5794;-65
2022/11/06 07:24:19;;;;;;;;;;;;;;;12.52;57.59;96960.19;4241504;27;5837;-65
2022/11/06 07:26:24;;;;;;;;;;;;;;;12.54;57.68;96958.13;4236679;27;5683;-64
2022/11/06 07:28:27;;;;;;;;;;;;;;;12.59;57.20;96954.91;4238681;27;5677;-65
2022/11/06 07:30:31;;;;;;;;;;;;;;;12.59;57.42;96954.91;4242169;27;5653;-65
2022/11/06 07:32:34;;;;;;;;;;;;;;;12.63;57.21;96965.91;4233402;27;5774;-65
2022/11/06 07:34:37;;;;;;;;;;;;;;;12.64;57.15;96972.84;4233279;27;5752;-65
2022/11/06 07:36:41;;;;;;;;;;;;;;;12.66;57.04;96962.84;4220457;28;5659;-65
2022/11/06 07:38:44;;;;;;;;;;;;;;;12.63;57.31;96953.47;4227253;28;5717;-65
2022/11/06 07:40:47;;;;;;;;;;;;;;;12.65;56.98;96954.09;4228884;28;5654;-65
2022/11/06 07:42:51;;;;;;;;;;;;;;;12.65;57.05;96964.69;4218465;28;5670;-65
2022/11/06 07:44:54;;;;;;;;;;;;;;;12.67;56.69;96953.88;4220371;28;5842;-64
2022/11/06 07:46:57;;;;;;;;;;;;;;;12.68;56.89;96960.81;4220819;28;5864;-65
2022/11/06 07:49:00;;;;;;;;;;;;;;;12.71;56.87;96955.13;4223337;28;5668;-65
2022/11/06 07:51:04;;;;;;;;;;;;;;;12.74;56.83;96952.88;4218525;28;5903;-65
2022/11/06 07:53:06;;;;;;;;;;;;;;;12.74;56.38;96950.22;4222442;28;5671;-64
2022/11/06 07:55:09;;;;;;;;;;;;;;;12.79;56.64;96955.72;4224259;28;6009;-65
2022/11/06 07:57:12;;;;;;;;;;;;;;;12.84;56.22;96957.78;4226808;27;5650;-65
2022/11/06 07:59:17;;;;;;;;;;;;;;;12.81;56.20;96959.00;4219295;28;5810;-65
2022/11/06 08:01:20;;;;;;;;;;;;;;;12.85;56.30;96963.91;4224000;28;5659;-66
2022/11/06 08:03:24;;;;;;;;;;;;;;;12.86;56.19;96949.63;4222374;28;5923;-65
2022/11/06 08:05:27;;;;;;;;;;;;;;;12.90;56.27;96953.47;4218034;28;5766;-65
2022/11/06 08:07:30;;;;;;;;;;;;;;;12.91;56.18;96948.00;4217909;28;5671;-65
2022/11/06 08:09:33;;;;;;;;;;;;;;;12.93;56.23;96948.59;4218142;28;5845;-65
2022/11/06 08:11:36;;;;;;;;;;;;;;;12.93;55.84;96947.78;4223386;28;5707;-64
2022/11/06 08:13:39;;;;;;;;;;;;;;;12.88;56.22;96940.44;4217064;28;5683;-67
2022/11/06 08:15:43;;;;;;;;;;;;;;;12.87;56.24;96941.44;4221584;28;5799;-65
2022/11/06 08:17:46;;;;;;;;;;;;;;;12.89;56.26;96938.59;4224080;28;5813;-65
2022/11/06 08:19:49;;;;;;;;;;;;;;;12.92;56.13;96951.47;4218226;28;5675;-66
2022/11/06 08:21:51;;;;;;;;;;;;;;;12.93;56.02;96959.22;4211256;28;5700;-66
2022/11/06 08:23:54;;;;;;;;;;;;;;;12.92;55.81;96948.81;4214689;28;6444;-66
2022/11/06 08:25:58;;;;;;;;;;;;;;;12.92;56.06;96954.94;4217223;28;5793;-66
2022/11/06 08:28:02;;;;;;;;;;;;;;;12.93;55.84;96953.91;4217155;28;5755;-68
2022/11/06 08:30:06;;;;;;;;;;;;;;;12.95;55.96;96941.25;4211950;28;5698;-66
2022/11/06 08:32:10;;;;;;;;;;;;;;;13.00;55.68;96943.28;4223587;28;5716;-65
2022/11/06 08:34:12;;;;;;;;;;;;;;;13.00;55.69;96944.09;4218334;28;5667;-65
2022/11/06 08:36:16;;;;;;;;;;;;;;;12.99;55.78;96939.00;4223203;28;5679;-66
2022/11/06 08:38:19;;;;;;;;;;;;;;;12.97;55.83;96930.44;4217806;28;5678;-64
2022/11/06 08:40:21;;;;;;;;;;;;;;;12.91;56.05;96933.88;4217633;28;5671;-65
2022/11/06 08:42:32;;;;;;;;;;;;;;;12.90;55.82;96934.91;4212127;28;6000;-66
2022/11/06 08:44:34;;;;;;;;;;;;;;;12.91;55.74;96931.25;4224221;28;5817;-66
2022/11/06 08:46:37;;;;;;;;;;;;;;;12.91;55.92;96926.78;4222175;28;5667;-65
2022/11/06 08:48:41;;;;;;;;;;;;;;;12.94;55.85;96930.84;4216122;28;5733;-66
2022/11/06 08:50:44;;;;;;;;;;;;;;;12.95;55.66;96932.47;4222499;28;6573;-67
2022/11/06 08:52:47;;;;;;;;;;;;;;;12.94;55.57;96930.84;4219203;28;5802;-66
2022/11/06 08:54:49;;;;;;;;;;;;;;;12.94;55.44;96938.81;4219906;27;5886;-65
2022/11/06 08:56:52;;;;;;;;;;;;;;;12.95;55.57;96935.94;4220667;28;5654;-65
2022/11/06 08:58:55;;;;;;;;;;;;;;;12.94;55.47;96933.50;4223043;28;5686;-66
2022/11/06 09:00:58;;;;;;;;;;;;;;;12.95;55.49;96938.59;4222425;28;5667;-66
2022/11/06 09:03:04;;;;;;;;;;;;;;;12.98;55.54;96946.16;4218315;28;5830;-65
2022/11/06 09:05:09;;;;;;;;;;;;;;;13.02;55.45;96938.59;4218990;28;5742;-65
2022/11/06 09:07:11;;;;;;;;;;;;;;;13.02;55.21;96941.22;4220058;28;5778;-65
2022/11/06 09:09:14;;;;;;;;;;;;;;;13.05;55.40;96948.81;4223575;28;5667;-66
2022/11/06 09:11:17;;;;;;;;;;;;;;;13.05;55.18;96944.31;4215251;28;5822;-65
2022/11/06 09:13:21;;;;;;;;;;;;;;;13.06;54.96;96934.53;4211616;28;5660;-65
2022/11/06 09:15:24;;;;;;;;;;;;;;;13.06;55.20;96937.16;4217505;28;5817;-65
2022/11/06 09:17:26;;;;;;;;;;;;;;;13.06;55.14;96930.03;4223404;28;5675;-65
2022/11/06 09:19:29;;;;;;;;;;;;;;;13.05;55.01;96911.66;4217530;28;5948;-66
2022/11/06 09:21:34;;;;;;;;;;;;;;;13.06;54.73;96907.97;4216834;28;5883;-65
2022/11/06 09:23:37;;;;;;;;;;;;;;;13.10;54.97;96909.19;4217852;28;5738;-66
2022/11/06 09:25:40;;;;;;;;;;;;;;;13.15;54.98;96909.41;4217329;28;5648;-65
2022/11/06 09:27:43;;;;;;;;;;;;;;;13.17;55.00;96915.31;4217164;28;5097;-65
2022/11/06 09:29:47;;;;;;;;;;;;;;;13.18;54.89;96910.81;4209153;28;5874;-65
2022/11/06 09:31:50;;;;;;;;;;;;;;;13.18;54.91;96914.28;4217554;28;5679;-65
2022/11/06 09:33:53;;;;;;;;;;;;;;;13.18;54.83;96910.81;4215388;28;5642;-65
2022/11/06 09:35:56;;;;;;;;;;;;;;;13.18;54.50;96911.63;4216131;28;5663;-65
2022/11/06 09:38:04;;;;;;;;;;;;;;;13.17;54.61;96919.81;4216357;28;5668;-65
2022/11/06 09:40:12;;;;;;;;;;;;;;;13.13;54.74;96914.06;4213974;28;5697;-66
2022/11/06 09:42:25;;;;;;;;;;;;;;;13.12;54.83;96907.13;4204736;28;5671;-65
2022/11/06 09:44:48;;;;;;;;;;;;;;;13.11;54.57;96919.59;4206687;28;5679;-65
2022/11/06 09:46:52;;;;;;;;;;;;;;;13.10;54.79;96914.50;4216530;28;5686;-66
2022/11/06 09:48:59;;;;;;;;;;;;;;;13.11;54.67;96911.63;4213777;28;5752;-66
2022/11/06 09:51:06;;;;;;;;;;;;;;;13.12;54.38;96902.66;4215647;28;5659;-67
2022/11/06 09:53:18;;;;;;;;;;;;;;;13.09;54.80;96897.75;4216695;28;5822;-65
2022/11/06 09:55:27;;;;;;;;;;;;;;;13.12;54.63;96907.13;4216929;28;5770;-65
2022/11/06 09:57:37;;;;;;;;;;;;;;;13.15;54.58;96897.97;4216617;28;5623;-66
2022/11/06 09:59:41;;;;;;;;;;;;;;;13.18;54.58;96889.59;4208935;28;5714;-65
2022/11/06 10:01:47;;;;;;;;;;;;;;;13.20;54.69;96903.50;4200232;28;5792;-65
2022/11/06 10:03:55;;;;;;;;;;;;;;;13.21;54.61;96903.28;4217094;28;6496;-65
2022/11/06 10:05:58;;;;;;;;;;;;;;;13.24;54.75;96904.69;4206781;28;5685;-65
2022/11/06 10:08:04;;;;;;;;;;;;;;;13.27;54.52;96915.75;4208765;28;5789;-65
2022/11/06 10:10:15;;;;;;;;;;;;;;;13.25;54.43;96916.94;4208158;28;5681;-65
2022/11/06 10:12:29;;;;;;;;;;;;;;;13.24;54.62;96916.13;4213107;28;5688;-65
2022/11/06 10:14:47;;;;;;;;;;;;;;;13.25;54.46;96920.44;4217065;28;5759;-66
2022/11/06 10:16:58;;;;;;;;;;;;;;;13.30;54.65;96919.81;4216961;28;6739;-65
2022/11/06 10:19:09;;;;;;;;;;;;;;;13.31;54.80;96918.78;4206279;28;5789;-66
2022/11/06 10:21:22;;;;;;;;;;;;;;;13.33;54.71;96916.75;4200542;28;5792;-66
2022/11/06 10:23:32;;;;;;;;;;;;;;;13.32;54.58;96920.41;4214418;28;5742;-65
2022/11/06 10:25:58;;;;;;;;;;;;;;;13.33;54.71;96912.25;4217012;28;6061;-65
2022/11/06 10:28:03;;;;;;;;;;;;;;;13.33;54.41;96906.94;4210977;28;7362;-65
2022/11/06 10:30:10;;;;;;;;;;;;;;;13.32;54.78;96907.97;4204970;28;5690;-65
2022/11/06 10:32:32;;;;;;;;;;;;;;;13.34;54.38;96915.72;4203846;28;5677;-66
2022/11/06 10:34:40;;;;;;;;;;;;;;;13.35;54.53;96912.03;4208434;28;5758;-66
2022/11/06 10:36:49;;;;;;;;;;;;;;;13.36;54.38;96903.03;4199610;28;6341;-66
2022/11/06 10:38:55;;;;;;;;;;;;;;;13.39;54.53;96892.84;4202776;28;5652;-66
2022/11/06 10:41:00;;;;;;;;;;;;;;;13.44;54.60;96900.16;4216852;28;6468;-66
2022/11/06 10:43:14;;;;;;;;;;;;;;;13.47;54.62;96889.13;4208118;28;5826;-66
2022/11/06 10:45:18;;;;;;;;;;;;;;;13.49;54.55;96876.47;4212093;28;6778;-66
2022/11/06 10:47:22;;;;;;;;;;;;;;;13.54;54.47;96875.84;4213085;28;5830;-65
2022/11/06 10:49:35;;;;;;;;;;;;;;;13.57;54.30;96886.03;4207298;28;5699;-65
2022/11/06 10:51:57;;;;;;;;;;;;;;;13.56;54.30;96887.88;4214455;28;5782;-65
2022/11/06 10:54:13;;;;;;;;;;;;;;;13.59;54.66;96887.47;4214286;28;5676;-65
2022/11/06 10:56:34;;;;;;;;;;;;;;;13.60;54.49;96875.81;4211718;28;5967;-66
2022/11/06 10:58:37;;;;;;;;;;;;;;;13.58;54.28;96869.88;4207474;28;5721;-66
2022/11/06 11:00:40;;;;;;;;;;;;;;;13.61;54.22;96873.97;4215008;28;5675;-66
2022/11/06 11:02:48;;;;;;;;;;;;;;;13.61;54.24;96873.97;4216669;28;8403;-65
2022/11/06 11:04:50;;;;;;;;;;;;;;;13.64;54.23;96876.22;4222594;28;5748;-66
2022/11/06 11:07:13;;;;;;;;;;;;;;;13.66;54.42;96866.19;4213323;28;5731;-65
2022/11/06 11:09:28;;;;;;;;;;;;;;;13.67;54.27;96868.63;4216255;28;5695;-65
2022/11/06 11:11:32;;;;;;;;;;;;;;;13.70;54.12;96862.06;4216192;28;5672;-65
2022/11/06 11:13:35;;;;;;;;;;;;;;;13.69;54.09;96861.25;4219675;28;6278;-65
2022/11/06 11:15:43;;;;;;;;;;;;;;;13.70;54.14;96846.13;4220024;28;5742;-66
2022/11/06 11:18:06;;;;;;;;;;;;;;;13.71;54.11;96853.09;4218098;28;6353;-66
2022/11/06 11:20:31;;;;;;;;;;;;;;;13.73;54.13;96856.34;4215416;28;5671;-66
2022/11/06 11:22:34;;;;;;;;;;;;;;;13.75;54.07;96854.28;4213507;28;6376;-66
2022/11/06 11:24:36;;;;;;;;;;;;;;;13.77;54.28;96856.75;4219738;28;5085;-66
2022/11/06 11:26:44;;;;;;;;;;;;;;;13.76;54.00;96857.78;4220220;28;5762;-66
2022/11/06 11:28:52;;;;;;;;;;;;;;;13.76;54.15;96850.63;4211113;28;5770;-66
2022/11/06 11:31:02;;;;;;;;;;;;;;;13.74;54.18;96851.84;4222641;28;5657;-64
2022/11/06 11:33:13;;;;;;;;;;;;;;;13.74;54.17;96854.50;4216500;28;5786;-65
2022/11/06 11:35:19;;;;;;;;;;;;;;;13.75;54.12;96848.97;4219092;28;5663;-65
2022/11/06 11:37:25;;;;;;;;;;;;;;;13.77;54.12;96846.94;4219716;28;5762;-65
2022/11/06 11:39:31;;;;;;;;;;;;;;;13.78;54.29;96840.59;4224938;28;5741;-65
2022/11/06 11:41:34;;;;;;;;;;;;;;;13.79;54.04;96839.56;4213871;28;5659;-64
2022/11/06 11:43:39;;;;;;;;;;;;;;;13.80;54.27;96840.38;4218340;28;5739;-65
2022/11/06 11:45:42;;;;;;;;;;;;;;;13.77;54.32;96828.31;4222688;28;5675;-64
2022/11/06 11:47:47;;;;;;;;;;;;;;;13.77;54.41;96828.31;4219566;28;5821;-65
2022/11/06 11:49:50;;;;;;;;;;;;;;;13.78;54.13;96821.97;4218887;28;5663;-65
2022/11/06 11:51:53;;;;;;;;;;;;;;;13.81;54.43;96810.91;4220543;28;5830;-64
2022/11/06 11:54:01;;;;;;;;;;;;;;;13.84;53.99;96805.19;4217732;28;5667;-65
2022/11/06 11:56:07;;;;;;;;;;;;;;;13.84;54.06;96801.72;4216842;28;5680;-65
2022/11/06 11:58:26;;;;;;;;;;;;;;;13.86;54.02;96803.16;4216955;28;5651;-65
2022/11/06 12:00:34;;;;;;;;;;;;;;;13.89;54.16;96794.75;4220223;28;5733;-65
2022/11/06 12:02:42;;;;;;;;;;;;;;;13.91;53.99;96799.84;4216991;28;5699;-65
2022/11/06 12:04:50;;;;;;;;;;;;;;;13.90;54.00;96806.19;4216263;28;5738;-65
2022/11/06 12:06:59;;;;;;;;;;;;;;;13.88;54.35;96811.72;4221787;28;6374;-65
2022/11/06 12:09:02;;;;;;;;;;;;;;;13.86;53.87;96802.31;4218814;28;5694;-66
2022/11/06 12:11:06;;;;;;;;;;;;;;;13.85;53.93;96793.53;4221809;28;5707;-65
2022/11/06 12:13:18;;;;;;;;;;;;;;;13.87;53.96;96795.97;4218413;28;5675;-65
2022/11/06 12:15:24;;;;;;;;;;;;;;;13.90;53.94;96780.41;4219938;28;5930;-65
2022/11/06 12:17:32;;;;;;;;;;;;;;;13.93;53.88;96772.03;4224648;28;5672;-65
2022/11/06 12:19:39;;;;;;;;;;;;;;;13.95;53.95;96777.94;4223032;28;5758;-65
2022/11/06 12:21:45;;;;;;;;;;;;;;;13.89;53.77;96773.47;4218258;28;5702;-65
2022/11/06 12:23:54;;;;;;;;;;;;;;;13.89;54.14;96770.81;4214784;28;5672;-66
2022/11/06 12:26:04;;;;;;;;;;;;;;;13.89;54.02;96765.50;4218582;28;5777;-65
2022/11/06 12:28:17;;;;;;;;;;;;;;;13.89;53.96;96767.34;4214636;28;5808;-66
2022/11/06 12:30:22;;;;;;;;;;;;;;;13.87;53.85;96766.75;4215773;28;5663;-66
2022/11/06 12:32:44;;;;;;;;;;;;;;;13.86;54.01;96776.56;4211485;28;5769;-66
2022/11/06 12:34:52;;;;;;;;;;;;;;;13.87;53.92;96770.22;4210481;28;5761;-66
2022/11/06 12:37:10;;;;;;;;;;;;;;;13.85;54.13;96768.81;4214545;28;5660;-66
2022/11/06 12:39:19;;;;;;;;;;;;;;;13.88;54.13;96766.53;4214292;28;5667;-66
2022/11/06 12:41:27;;;;;;;;;;;;;;;13.88;53.95;96753.25;4222809;28;5687;-67
2022/11/06 12:43:37;;;;;;;;;;;;;;;13.87;54.08;96735.69;4218691;28;5838;-65
2022/11/06 12:45:54;;;;;;;;;;;;;;;13.87;54.17;96724.22;4217387;28;5782;-66
2022/11/06 12:48:12;;;;;;;;;;;;;;;13.84;54.09;96741.44;4219224;28;5679;-66
2022/11/06 12:50:29;;;;;;;;;;;;;;;13.86;53.77;96747.34;4220804;28;5667;-65
2022/11/06 12:52:46;;;;;;;;;;;;;;;13.86;53.78;96744.69;4217973;28;5879;-66
2022/11/06 12:55:15;;;;;;;;;;;;;;;13.90;53.89;96745.88;4218040;28;5770;-66
2022/11/06 12:57:29;;;;;;;;;;;;;;;13.92;54.00;96753.63;4214728;28;5671;-65
2022/11/06 12:59:44;;;;;;;;;;;;;;;13.92;53.95;96753.63;4215987;28;6582;-65
2022/11/06 13:01:58;;;;;;;;;;;;;;;13.91;54.00;96749.34;4216233;28;5679;-65
2022/11/06 13:04:14;;;;;;;;;;;;;;;13.92;53.82;96749.13;4216830;28;5672;-66
2022/11/06 13:06:26;;;;;;;;;;;;;;;13.93;53.86;96761.41;4212668;28;6379;-65
2022/11/06 13:08:39;;;;;;;;;;;;;;;13.92;53.69;96749.13;4207470;28;5876;-65
2022/11/06 13:10:56;;;;;;;;;;;;;;;13.93;53.64;96734.84;4218010;28;6661;-65
2022/11/06 13:13:17;;;;;;;;;;;;;;;13.93;53.96;96740.16;4217450;28;5683;-65
2022/11/06 13:15:30;;;;;;;;;;;;;;;13.93;53.96;96729.50;4218812;28;5754;-65
2022/11/06 13:17:38;;;;;;;;;;;;;;;13.94;53.62;96728.47;4220554;28;5751;-65
2022/11/06 13:19:51;;;;;;;;;;;;;;;13.94;53.76;96730.34;4217508;28;5663;-65
2022/11/06 13:22:04;;;;;;;;;;;;;;;13.96;53.59;96733.59;4217608;28;5664;-65
2022/11/06 13:24:12;;;;;;;;;;;;;;;13.96;53.69;96726.41;4217495;28;5682;-65
2022/11/06 13:26:26;;;;;;;;;;;;;;;13.95;53.68;96722.13;4213032;28;5682;-65
2022/11/06 13:28:33;;;;;;;;;;;;;;;13.96;53.59;96722.94;4212354;28;5093;-66
2022/11/06 13:30:38;;;;;;;;;;;;;;;13.95;53.51;96711.50;4217392;28;5765;-65
2022/11/06 13:32:46;;;;;;;;;;;;;;;13.98;53.60;96715.56;4209039;28;5671;-65
2022/11/06 13:34:59;;;;;;;;;;;;;;;13.97;53.60;96708.63;4208921;28;6527;-65
2022/11/06 13:37:04;;;;;;;;;;;;;;;13.98;53.62;96711.06;4203274;28;6505;-66
2022/11/06 13:39:15;;;;;;;;;;;;;;;13.99;53.67;96707.38;4213951;28;5773;-65
2022/11/06 13:41:22;;;;;;;;;;;;;;;13.99;53.63;96709.22;4212857;28;5692;-66
2022/11/06 13:43:30;;;;;;;;;;;;;;;13.99;53.64;96717.19;4217150;28;5762;-65
2022/11/06 13:45:46;;;;;;;;;;;;;;;13.99;53.65;96718.00;4217415;28;5702;-65
2022/11/06 13:48:00;;;;;;;;;;;;;;;14.01;53.36;96724.94;4212485;28;6654;-66
2022/11/06 13:50:11;;;;;;;;;;;;;;;14.02;53.70;96731.88;4209651;28;5774;-65
2022/11/06 13:52:21;;;;;;;;;;;;;;;13.99;53.38;96731.28;4204629;28;5787;-66
2022/11/06 13:54:39;;;;;;;;;;;;;;;13.97;53.41;96733.34;4200326;28;6382;-66
2022/11/06 13:57:13;;;;;;;;;;;;;;;13.96;53.41;96744.22;4208496;28;5911;-65
2022/11/06 14:00:06;;;;;;;;;;;;;;;13.95;53.44;96743.41;4167750;28;5697;-65
2022/11/06 14:02:31;;;;;;;;;;;;;;;13.95;53.43;96735.44;4146881;28;5513;-65
2022/11/06 14:05:06;;;;;;;;;;;;;;;13.94;53.62;96725.81;4165086;28;7743;-65
2022/11/06 14:07:14;;;;;;;;;;;;;;;13.93;53.72;96734.84;4162348;28;5859;-66
2022/11/06 14:09:19;;;;;;;;;;;;;;;13.92;53.57;96735.84;4165283;28;5767;-66
2022/11/06 14:11:28;;;;;;;;;;;;;;;13.91;53.66;96728.88;4165329;28;5842;-66
2022/11/06 14:13:35;;;;;;;;;;;;;;;13.92;53.46;96732.38;4165300;28;5842;-65
2022/11/06 14:15:41;;;;;;;;;;;;;;;13.90;53.70;96723.78;4165371;28;5754;-65
2022/11/06 14:17:55;;;;;;;;;;;;;;;13.89;53.42;96724.81;4165396;28;5775;-66
2022/11/06 14:20:04;;;;;;;;;;;;;;;13.90;53.64;96739.75;4165165;28;5170;-66
2022/11/06 14:22:26;;;;;;;;;;;;;;;13.90;53.64;96731.78;4165198;28;5873;-66
2022/11/06 14:24:39;;;;;;;;;;;;;;;13.87;53.53;96721.56;4165253;28;7783;-66
2022/11/06 14:26:44;;;;;;;;;;;;;;;13.89;53.63;96728.31;4165113;28;5065;-65
2022/11/06 14:28:47;;;;;;;;;;;;;;;13.89;53.66;96722.16;4165101;28;6484;-66
2022/11/06 14:30:50;;;;;;;;;;;;;;;13.84;53.63;96720.16;4164921;28;5859;-66
2022/11/06 14:33:48;;;;;;;;;;;;;;;13.85;53.75;96721.81;4165156;28;5782;-65
2022/11/06 14:35:52;;;;;;;;;;;;;;;13.84;53.81;96720.16;4161140;28;5842;-66
2022/11/06 14:38:17;;;;;;;;;;;;;;;13.86;53.63;96722.59;4173741;28;6502;-65
2022/11/06 14:40:31;;;;;;;;;;;;;;;13.85;53.83;96708.50;4218542;28;5662;-68
2022/11/06 14:42:38;;;;;;;;;;;;;;;13.85;53.70;96721.81;4208052;28;5783;-66
2022/11/06 14:44:45;;;;;;;;;;;;;;;13.82;53.90;96732.88;4216490;28;5798;-66
2022/11/06 14:46:50;;;;;;;;;;;;;;;13.80;54.00;96726.94;4209075;28;6592;-66
2022/11/06 14:48:55;;;;;;;;;;;;;;;13.80;53.61;96726.94;4210408;28;5701;-66
2022/11/06 14:51:00;;;;;;;;;;;;;;;13.77;53.71;96730.03;4203372;28;5705;-66
2022/11/06 14:53:07;;;;;;;;;;;;;;;13.77;53.84;96721.25;4211779;28;5922;-66
2022/11/06 14:55:25;;;;;;;;;;;;;;;13.75;53.96;96710.84;4206880;28;5660;-65
2022/11/06 14:57:40;;;;;;;;;;;;;;;13.73;53.74;96712.88;4219935;28;5702;-65
2022/11/06 14:59:43;;;;;;;;;;;;;;;13.74;54.01;96709.22;4219622;28;5684;-65
2022/11/06 15:01:56;;;;;;;;;;;;;;;13.74;53.91;96706.53;4203261;28;5701;-66
2022/11/06 15:04:03;;;;;;;;;;;;;;;13.74;53.88;96709.22;4207831;28;5681;-65
2022/11/06 15:06:20;;;;;;;;;;;;;;;13.76;54.05;96717.78;4208395;28;5772;-65
2022/11/06 15:08:52;;;;;;;;;;;;;;;13.77;54.16;96732.69;4213177;28;6418;-65
2022/11/06 15:10:56;;;;;;;;;;;;;;;13.76;54.25;96738.22;4213784;28;5766;-65
2022/11/06 15:13:10;;;;;;;;;;;;;;;13.76;54.21;96743.53;4217446;28;5675;-65
2022/11/06 15:15:19;;;;;;;;;;;;;;;13.75;54.39;96742.72;4215481;28;5733;-65
2022/11/06 15:17:25;;;;;;;;;;;;;;;13.78;54.37;96749.44;4227955;28;5668;-65
2022/11/06 15:19:32;;;;;;;;;;;;;;;13.79;54.47;96743.91;4219229;28;5758;-65
2022/11/06 15:21:42;;;;;;;;;;;;;;;13.79;54.06;96743.09;4202862;28;5815;-65
2022/11/06 15:23:55;;;;;;;;;;;;;;;13.80;54.21;96748.19;4211017;28;5081;-65
2022/11/06 15:26:06;;;;;;;;;;;;;;;13.80;54.11;96745.53;4204570;28;5772;-65
2022/11/06 15:28:14;;;;;;;;;;;;;;;13.81;54.39;96741.03;4210872;28;5679;-65
2022/11/06 15:30:19;;;;;;;;;;;;;;;13.82;54.46;96753.31;4214635;28;5773;-65
2022/11/06 15:32:24;;;;;;;;;;;;;;;13.81;54.21;96768.41;4215905;28;5735;-65
2022/11/06 15:34:32;;;;;;;;;;;;;;;13.82;54.45;96763.94;4208428;28;5663;-65
2022/11/06 15:36:39;;;;;;;;;;;;;;;13.80;54.16;96766.78;4214245;28;5760;-65
2022/11/06 15:38:43;;;;;;;;;;;;;;;13.78;54.29;96763.53;4218161;28;5730;-65
2022/11/06 15:40:48;;;;;;;;;;;;;;;13.79;54.30;96743.09;4212338;28;5760;-65
2022/11/06 15:42:54;;;;;;;;;;;;;;;13.78;54.40;96736.97;4214293;28;5746;-65
2022/11/06 15:45:06;;;;;;;;;;;;;;;13.78;54.32;96742.28;4210738;28;5671;-65
2022/11/06 15:47:20;;;;;;;;;;;;;;;13.78;54.40;96739.63;4214140;28;5655;-65
2022/11/06 15:49:26;;;;;;;;;;;;;;;13.80;54.34;96750.84;4210415;28;5659;-65
2022/11/06 15:51:29;;;;;;;;;;;;;;;13.80;54.48;96758.81;4218772;28;5660;-65
2022/11/06 15:53:32;;;;;;;;;;;;;;;13.80;54.50;96750.84;4218847;28;5671;-65
2022/11/06 15:55:48;;;;;;;;;;;;;;;13.79;54.73;96743.91;4209085;28;5744;-65
2022/11/06 15:57:52;;;;;;;;;;;;;;;13.78;54.65;96747.59;4202823;28;5780;-65
2022/11/06 16:00:08;;;;;;;;;;;;;;;13.76;54.75;96744.34;4210372;28;5689;-66
2022/11/06 16:02:15;;;;;;;;;;;;;;;13.78;54.51;96752.09;4207526;28;5946;-66
2022/11/06 16:04:21;;;;;;;;;;;;;;;13.79;54.76;96743.91;4206838;28;5659;-66
2022/11/06 16:06:25;;;;;;;;;;;;;;;13.78;54.50;96742.28;4204620;28;5714;-66
2022/11/06 16:08:30;;;;;;;;;;;;;;;13.76;54.66;96751.50;4203278;28;5690;-66
2022/11/06 16:10:38;;;;;;;;;;;;;;;13.74;54.79;96741.09;4201836;28;5863;-66
2022/11/06 16:12:42;;;;;;;;;;;;;;;13.75;54.88;96739.25;4205837;28;5697;-66
2022/11/06 16:14:46;;;;;;;;;;;;;;;13.76;54.86;96749.66;4202077;28;5692;-66
2022/11/06 16:16:51;;;;;;;;;;;;;;;13.76;54.75;96752.31;4218590;28;5762;-66
2022/11/06 16:18:54;;;;;;;;;;;;;;;13.78;54.85;96758.22;4210228;28;5788;-66
2022/11/06 16:21:08;;;;;;;;;;;;;;;13.79;54.56;96765.16;4207742;28;5693;-66
2022/11/06 16:23:18;;;;;;;;;;;;;;;13.80;54.75;96766.78;4207590;28;5687;-66
2022/11/06 16:25:21;;;;;;;;;;;;;;;13.80;54.84;96760.66;4209913;28;5695;-66
2022/11/06 16:27:25;;;;;;;;;;;;;;;13.80;54.57;96761.47;4218219;28;5742;-66
2022/11/06 16:29:30;;;;;;;;;;;;;;;13.80;54.69;96758.81;4224624;28;5987;-66
2022/11/06 16:31:36;;;;;;;;;;;;;;;13.80;54.96;96761.47;4215634;28;6940;-66
2022/11/06 16:33:39;;;;;;;;;;;;;;;13.83;54.93;96770.88;4218541;28;5682;-66
2022/11/06 16:35:42;;;;;;;;;;;;;;;13.83;54.88;96768.22;4201467;28;5682;-66
2022/11/06 16:37:44;;;;;;;;;;;;;;;13.82;54.64;96775.38;4215446;28;5675;-64
2022/11/06 16:39:49;;;;;;;;;;;;;;;13.83;54.76;96774.34;4215972;28;5774;-66
2022/11/06 16:42:02;;;;;;;;;;;;;;;13.83;54.94;96771.69;4217201;28;5888;-65
2022/11/06 16:44:20;;;;;;;;;;;;;;;13.83;54.95;96771.69;4217714;28;5874;-65
2022/11/06 16:47:17;;;;;;;;;;;;;;;13.84;54.77;96767.19;4218709;28;5664;-65
2022/11/06 16:49:34;;;;;;;;;;;;;;;13.84;54.77;96765.34;4216124;28;5679;-65
2022/11/06 16:51:37;;;;;;;;;;;;;;;13.85;54.61;96763.50;4218573;28;5710;-65
2022/11/06 16:53:52;;;;;;;;;;;;;;;13.83;54.69;96777.00;4218437;28;5687;-65
2022/11/06 16:56:00;;;;;;;;;;;;;;;13.84;54.68;96772.50;4217809;28;5682;-66
2022/11/06 16:58:04;;;;;;;;;;;;;;;13.82;54.68;96762.09;4218041;28;5750;-66
2022/11/06 17:00:21;;;;;;;;;;;;;;;13.82;54.77;96770.06;4210036;28;5672;-66
2022/11/06 17:02:29;;;;;;;;;;;;;;;13.83;54.84;96763.72;4218363;28;5161;-66
2022/11/06 17:04:32;;;;;;;;;;;;;;;13.84;54.70;96770.66;4211487;28;5863;-66
2022/11/06 17:06:38;;;;;;;;;;;;;;;13.84;54.69;96775.16;4201644;28;5702;-66
2022/11/06 17:08:41;;;;;;;;;;;;;;;13.87;54.76;96777.38;4209349;28;5675;-66
2022/11/06 17:10:45;;;;;;;;;;;;;;;13.86;54.71;96781.88;4216151;28;5726;-66
2022/11/06 17:12:50;;;;;;;;;;;;;;;13.86;54.86;96789.84;4217706;28;5077;-66
2022/11/06 17:14:53;;;;;;;;;;;;;;;13.86;54.79;96795.16;4227838;28;5745;-66
2022/11/06 17:16:57;;;;;;;;;;;;;;;13.87;54.63;96806.63;4234950;27;5638;-65
2022/11/06 17:19:01;;;;;;;;;;;;;;;13.89;54.54;96809.88;4235006;27;5638;-66
2022/11/06 17:21:06;;;;;;;;;;;;;;;13.89;54.75;96812.53;4223466;28;5663;-65
2022/11/06 17:23:10;;;;;;;;;;;;;;;13.86;54.68;96813.78;4218069;28;5655;-65
2022/11/06 17:25:18;;;;;;;;;;;;;;;13.90;54.87;96822.13;4204703;28;6477;-65
2022/11/06 17:27:21;;;;;;;;;;;;;;;13.85;54.73;96819.31;4213846;28;5676;-65
2022/11/06 17:29:23;;;;;;;;;;;;;;;13.89;54.93;96839.91;4216618;28;5738;-65
2022/11/06 17:31:27;;;;;;;;;;;;;;;13.88;54.76;96840.94;4217496;28;5672;-65
2022/11/06 17:33:29;;;;;;;;;;;;;;;13.89;55.06;96841.75;4216779;28;5659;-66
2022/11/06 17:35:33;;;;;;;;;;;;;;;13.90;55.04;96849.50;4218646;28;5663;-65
2022/11/06 17:37:37;;;;;;;;;;;;;;;13.90;55.00;96849.50;4218246;28;5676;-65
2022/11/06 17:39:39;;;;;;;;;;;;;;;13.90;55.08;96860.16;4223749;28;6031;-66
2022/11/06 17:41:42;;;;;;;;;;;;;;;13.91;54.75;96861.78;4217267;28;5734;-66
2022/11/06 17:43:48;;;;;;;;;;;;;;;13.91;54.86;96864.44;4217838;28;5691;-66
2022/11/06 17:45:51;;;;;;;;;;;;;;;13.92;54.99;96883.84;4217891;28;5755;-66
2022/11/06 17:47:54;;;;;;;;;;;;;;;13.91;55.04;96880.38;4215214;28;6453;-66
2022/11/06 17:49:57;;;;;;;;;;;;;;;13.92;54.72;96886.50;4209296;28;5689;-66
2022/11/06 17:52:02;;;;;;;;;;;;;;;13.91;54.68;96875.06;4209221;28;5693;-66